Decoded Metar for RJTL (SHIMOFUSA in JAPAN) (IATA:N/A) | Meteo·Mobile Aviation Weather
aviador You're here:

RJTL Decoded Metar

SHIMOFUSA in JAPAN
Report Time2018-09-21 15:27:00
UTC Time2018-09-21 17:56:53
Flight Rules Old
Wind320° at 03 kt
W.Decomp.*RWY 01: 2.2 kt HW 2 kt LCW
W.Rank320° ranks 15
Current wind is below 320° avg. (4.8)
Visibility9999 m
Phenomena:N/A
Clouds:Few 008 Hf
Scattered 010 Hf
Broken 020 Hf
Ceiling2,000 ft
Temp19°C (ISA +4)
Dew Point19°C (100% RH)
QNH1009 hPa
Density Alt1,027 ft
Elevation108 ft
Report Wrong Elevation
Raw Report
RJTL 211527Z 32003KT 280V010 9999 FEW008 SCT010 BKN020 19/19 Q1009
RMK 2ST008 4ST010 6SC020 A2981=

Extra information for RJTL:More info

Metar Taf Metar & Taf Last 4 Metars F.Rules Stats Wind Profile Meteogram Temp Stats Airport Information Weather charts Add Link Nearby VenuesMetar ALERT Operation Metar Decoded Social comments